Magnitogorsk, Russia
Current Conditions -  °F | °C
As of 7:00 AM on Sunday 26 Oct 2014 (Local Time) from USCM Reporting Station
Scattered Clouds Scattered Clouds  
Wind Chill: -7°   Ceiling: Unl
Heat Index:   Visibility: 5mi
Dew Point: -2°   Wind: 7mph
Humidity: 72%   Direction: 340°NNW
Pressure: 30.09"   Gusts: NA
Location:  53.42°N, 58.97°E
Report Text: USCM 260100Z 34003MPS 8000 SCT100 M15/M19 Q1019 NOSIG 01090065RMK QFE726
Loading
Personal Weather Stations






























Interactive Weather Map
Tropical Storm Tracking
New forecast layout! Learn more

10-Day Weather Forecast

Advertisements
Track Severe Weather on mobile